Natick, MA

2:36 PM EST on February 06, 2016 (GMT -0500)
West Natick | | Change Station
CLOSE
Current Station
Personal Weather Station
Location: Natick, MA
Elevation: 184 ft
Nearby Weather Stations

Elev 184 ft 42.29 °N, 71.39 °W | Updated 38 seconds ago

Partly Cloudy
Partly Cloudy
36.9 °F
Feels Like 37 °F
N
0.0
Wind Variable Wind from NW
Gusts 0.0 mph

Today
High -- | Low -- °F
--% Chance of Precip.
Yesterday
High -- | Low -- °F
Precip. -- in
Pressure 30.30 in
Visibility 10.0 miles
Clouds Clear
Windchill 37 °F
Dew Point 24 °F
Humidity 59%
Rainfall 0.02 in
Snow Depth Not available.
6:54 AM 5:05 PM
Waning Crescent, 4% visible
METAR KOWD 061853Z 21010KT 10SM CLR 02/M04 A3030 RMK AO2 SLP260 T00171039
Pressure 30.30 in
Visibility 10.0 miles
Clouds Clear
Windchill 37 °F
Dew Point 24 °F
Humidity 59%
Rainfall 0.02 in
Snow Depth Not available.
6:54 AM 5:05 PM
Waning Crescent, 4% visible
METAR KOWD 061853Z 21010KT 10SM CLR 02/M04 A3030 RMK AO2 SLP260 T00171039

10-Day Weather Forecast

Almanac

Astronomy

Feb. 06, 2016 Rise Set
Actual Time
Civil Twilight
Nautical Twilight
Astronomical Twilight
Moon
Length of Visible Light
Length of Day
Tomorrow will be .
, % of the Moon is Illuminated

Today's Extremes

State Highs State Lows

Community

WunderPhotos

Upload Photos

1,891,037 photos uploaded!

WunderBlog® & News

Nearby

Air Quality

  Air Quality AQ Index Pollutant
Not available.

Snow Depth

Station Depth Elevation

Earthquake Activity

City Distance Mag. Time & Date
Minimum magnitude displayed is 2.5.

Coastal Water Temperatures

Place Temperature

Stations

Nearby Weather Stations

Station Location Temp. Windchill Dew Point Humidity Wind Precip. Elev Updated Type
                   

Watches & Warnings

There are currently no watches in effect.